Time;durP1;ratioP1;P1;durP2;ratioP2;P2;SDS_P1;SDS_P2;PMS_P1;PMS_P2;Temp;Humidity;BMP_temperature;BMP_pressure;BME280_temperature;BME280_humidity;BME280_pressure;Samples;Min_cycle;Max_cycle;Signal;HPM_P1;HPM_P2
2022/09/06 00:02:30;;;;;;;7.50;4.03;;;21.00;98.80;;;-147.18;100.00;67318.16;5012745;28;20041;-76
2022/09/06 00:05:56;;;;;;;8.45;3.88;;;21.00;99.00;;;-147.18;100.00;67318.16;5024669;28;20132;-77
2022/09/06 00:09:21;;;;;;;9.43;3.30;;;21.00;99.20;;;-147.18;100.00;67318.16;5004878;28;20038;-76
2022/09/06 00:12:48;;;;;;;7.15;3.88;;;21.00;99.20;;;-147.18;100.00;67318.16;5011341;28;20044;-77
2022/09/06 00:16:16;;;;;;;10.93;4.47;;;21.00;99.20;;;-147.18;100.00;67318.16;4999195;28;20042;-77
2022/09/06 00:19:42;;;;;;;6.13;3.85;;;20.90;99.40;;;-147.18;100.00;67318.16;5011055;28;20088;-76
2022/09/06 00:23:08;;;;;;;6.55;4.05;;;20.90;99.40;;;-147.18;100.00;67318.16;5011376;28;20048;-77
2022/09/06 00:26:35;;;;;;;6.05;3.53;;;20.90;99.40;;;-147.18;100.00;67318.16;5010089;28;20484;-77
2022/09/06 00:30:04;;;;;;;9.60;4.18;;;20.90;99.70;;;-147.18;100.00;67318.16;5024111;28;20041;-76
2022/09/06 00:33:30;;;;;;;9.30;4.18;;;20.90;99.90;;;-147.18;100.00;67318.16;5006747;28;20095;-76
2022/09/06 00:36:59;;;;;;;6.93;3.78;;;20.90;99.90;;;-147.18;100.00;67318.16;5009500;28;20085;-77
2022/09/06 00:40:25;;;;;;;7.63;3.60;;;20.80;99.90;;;-147.18;100.00;67318.16;5009633;28;20046;-76
2022/09/06 00:43:50;;;;;;;7.22;3.60;;;20.80;99.90;;;-147.18;100.00;67318.16;5015403;28;20037;-77
2022/09/06 00:47:20;;;;;;;5.20;3.30;;;20.90;99.90;;;-147.18;100.00;67318.16;5012653;28;20052;-77
2022/09/06 00:50:50;;;;;;;6.50;3.53;;;20.90;99.80;;;-147.18;100.00;67318.16;5022468;28;20571;-76
2022/09/06 00:54:15;;;;;;;8.15;3.65;;;20.90;99.40;;;-147.18;100.00;67318.16;5013013;28;20044;-77
2022/09/06 00:57:42;;;;;;;7.28;3.47;;;20.90;98.90;;;-147.18;100.00;67318.16;5012499;28;20041;-76
2022/09/06 01:01:09;;;;;;;8.10;3.10;;;21.00;98.70;;;-147.18;100.00;67318.16;5012168;28;20042;-77
2022/09/06 01:04:38;;;;;;;5.75;2.97;;;21.00;98.20;;;-147.18;100.00;67318.16;5007039;28;20537;-76
2022/09/06 01:08:15;;;;;;;7.28;3.28;;;21.00;98.00;;;-147.18;100.00;67318.16;5009841;28;20511;-77
2022/09/06 01:12:05;;;;;;;7.40;3.83;;;21.10;97.90;;;-147.18;100.00;67318.16;5006211;28;20045;-76
2022/09/06 01:15:50;;;;;;;8.02;3.55;;;21.10;97.30;;;-147.18;100.00;67318.16;5006578;28;20053;-77
2022/09/06 01:19:36;;;;;;;10.57;3.33;;;21.10;96.40;;;-147.18;100.00;67318.16;5023357;28;20414;-76
2022/09/06 01:23:29;;;;;;;7.55;3.67;;;21.20;95.80;;;-147.18;100.00;67318.16;5009943;28;20108;-77
2022/09/06 01:27:22;;;;;;;9.95;3.95;;;21.20;95.60;;;-147.18;100.00;67318.16;5000669;28;20233;-76
2022/09/06 01:30:52;;;;;;;10.00;4.10;;;21.20;95.60;;;-147.18;100.00;67318.16;5021352;28;20041;-77
2022/09/06 01:34:27;;;;;;;9.45;3.80;;;21.20;95.30;;;-147.18;100.00;67318.16;5009780;28;20084;-77
2022/09/06 01:37:56;;;;;;;13.20;3.80;;;21.20;94.70;;;-147.18;100.00;67318.16;4992705;28;20069;-77
2022/09/06 01:41:22;;;;;;;8.90;3.33;;;21.20;93.90;;;-147.18;100.00;67318.16;5009428;28;20042;-76
2022/09/06 01:44:53;;;;;;;10.57;3.25;;;21.20;93.40;;;-147.18;100.00;67318.16;5008692;28;20034;-76
2022/09/06 01:48:34;;;;;;;11.98;3.78;;;21.20;93.60;;;-147.18;100.00;67318.16;5016524;28;20409;-76
2022/09/06 01:52:12;;;;;;;9.35;3.65;;;21.30;93.40;;;-147.18;100.00;67318.16;5010116;28;20052;-77
2022/09/06 01:55:54;;;;;;;12.82;3.22;;;21.30;93.10;;;-147.18;100.00;67318.16;5014541;28;20125;-76
2022/09/06 01:59:41;;;;;;;8.95;3.05;;;21.30;93.20;;;-147.18;100.00;67318.16;5016114;28;20123;-77
2022/09/06 02:03:19;;;;;;;11.00;3.83;;;21.30;93.00;;;-147.18;100.00;67318.16;5007999;28;20048;-76
2022/09/06 02:06:50;;;;;;;15.95;3.92;;;21.30;94.20;;;-147.18;100.00;67318.16;5004432;28;20048;-76
2022/09/06 02:10:22;;;;;;;9.43;3.97;;;21.40;96.60;;;-147.18;100.00;67318.16;5026520;28;20061;-77
2022/09/06 02:13:53;;;;;;;13.38;4.05;;;21.30;98.60;;;-147.18;100.00;67318.16;5008751;28;20042;-77
2022/09/06 02:17:24;;;;;;;;;;;21.40;99.90;;;-147.18;100.00;67318.16;5009614;28;20069;-77
2022/09/06 02:20:57;;;;;;;11.68;4.32;;;21.30;99.90;;;-147.18;100.00;67318.16;5012138;28;19932;-77
2022/09/06 02:24:30;;;;;;;10.05;4.00;;;21.30;99.90;;;-147.18;100.00;67318.16;5013573;28;20391;-77
2022/09/06 02:27:56;;;;;;;8.80;4.55;;;21.20;99.90;;;-147.18;100.00;67318.16;5007945;28;20134;-77
2022/09/06 02:31:24;;;;;;;9.05;4.20;;;21.20;99.90;;;-147.18;100.00;67318.16;5007501;28;20041;-77
2022/09/06 02:34:54;;;;;;;8.35;4.20;;;21.20;99.90;;;-147.18;100.00;67318.16;5008690;28;20049;-76
2022/09/06 02:38:22;;;;;;;8.77;4.20;;;21.10;99.90;;;-147.18;100.00;67318.16;5009207;28;20042;-77
2022/09/06 02:41:49;;;;;;;9.25;4.30;;;21.10;99.90;;;-147.18;100.00;67318.16;5010193;28;20038;-76
2022/09/06 02:45:15;;;;;;;9.25;4.50;;;21.10;99.90;;;-147.18;100.00;67318.16;5013569;28;20540;-77
2022/09/06 02:48:41;;;;;;;13.32;4.70;;;21.10;99.90;;;-147.18;100.00;67318.16;5003129;28;20136;-76
2022/09/06 02:52:09;;;;;;;8.73;4.43;;;21.10;99.90;;;-147.18;100.00;67318.16;5017835;28;20112;-76
2022/09/06 02:55:35;;;;;;;12.88;4.68;;;21.10;99.90;;;-147.18;100.00;67318.16;5018532;28;20438;-77
2022/09/06 02:59:01;;;;;;;7.93;4.43;;;21.10;99.90;;;-147.18;100.00;67318.16;4999333;28;20042;-77
2022/09/06 03:02:26;;;;;;;10.35;4.32;;;21.10;99.90;;;-147.18;100.00;67318.16;5020757;28;20080;-76
2022/09/06 03:05:53;;;;;;;7.07;4.15;;;21.00;99.90;;;-147.18;100.00;67318.16;5011593;28;20092;-76
2022/09/06 03:09:21;;;;;;;12.38;4.38;;;21.00;99.90;;;-147.18;100.00;67318.16;5012372;28;20483;-76
2022/09/06 03:12:47;;;;;;;8.80;4.70;;;21.00;99.90;;;-147.18;100.00;67318.16;5012142;28;20476;-77
2022/09/06 03:16:14;;;;;;;10.98;4.70;;;21.00;99.90;;;-147.18;100.00;67318.16;5009923;28;20128;-77
2022/09/06 03:19:40;;;;;;;9.52;4.90;;;21.00;99.90;;;-147.18;100.00;67318.16;5023422;28;20069;-77
2022/09/06 03:23:05;;;;;;;8.05;4.68;;;21.00;99.90;;;-147.18;100.00;67318.16;5014959;28;20054;-77
2022/09/06 03:26:32;;;;;;;7.72;4.43;;;20.90;99.90;;;-147.18;100.00;67318.16;5011285;28;20045;-77
2022/09/06 03:29:58;;;;;;;8.45;4.70;;;20.90;99.90;;;-147.18;100.00;67318.16;5011507;28;20785;-77
2022/09/06 03:33:24;;;;;;;9.98;4.70;;;20.90;99.90;;;-147.18;100.00;67318.16;5088127;23;20070;-76
2022/09/06 03:36:50;;;;;;;7.95;4.65;;;20.90;99.90;;;-147.18;100.00;67318.16;5104453;28;20506;-78
2022/09/06 03:40:16;;;;;;;8.77;4.68;;;20.90;99.90;;;-147.18;100.00;67318.16;5111401;28;20114;-78
2022/09/06 03:43:43;;;;;;;11.15;4.90;;;20.90;99.90;;;-147.18;100.00;67318.16;5082599;28;20048;-78
2022/09/06 03:47:09;;;;;;;8.90;4.60;;;20.90;99.90;;;-147.18;100.00;67318.16;5081198;28;20457;-78
2022/09/06 03:50:34;;;;;;;9.63;4.82;;;20.90;99.90;;;-147.18;100.00;67318.16;5091355;28;20044;-78
2022/09/06 03:54:00;;;;;;;10.38;4.60;;;20.90;99.90;;;-147.18;100.00;67318.16;5087533;28;20083;-78
2022/09/06 03:57:26;;;;;;;7.80;4.78;;;20.90;99.90;;;-147.18;100.00;67318.16;5094792;28;20073;-78
2022/09/06 04:00:59;;;;;;;11.90;4.85;;;20.80;99.90;;;-147.18;100.00;67318.16;5090617;28;20054;-78
2022/09/06 04:04:25;;;;;;;7.43;5.10;;;20.80;99.90;;;-147.18;100.00;67318.16;5075976;28;20586;-78
2022/09/06 04:07:50;;;;;;;9.38;4.80;;;20.80;99.90;;;-147.18;100.00;67318.16;5095558;28;20459;-78
2022/09/06 04:11:16;;;;;;;7.82;4.70;;;20.80;99.90;;;-147.18;100.00;67318.16;5086083;28;20121;-79
2022/09/06 04:14:42;;;;;;;7.88;4.50;;;20.80;99.90;;;-147.18;100.00;67318.16;5086762;28;20135;-83
2022/09/06 04:18:09;;;;;;;12.32;4.68;;;20.80;99.90;;;-147.18;100.00;67318.16;5093486;28;20047;-77
2022/09/06 04:21:35;;;;;;;9.48;4.60;;;20.70;99.90;;;-147.18;100.00;67318.16;5105039;28;20119;-81
2022/09/06 04:25:01;;;;;;;11.35;4.97;;;20.70;99.90;;;-147.18;100.00;67318.16;5092693;28;20107;-81
2022/09/06 04:28:27;;;;;;;14.00;5.50;;;20.80;99.90;;;-147.18;100.00;67318.16;5110089;28;20051;-81
2022/09/06 04:31:53;;;;;;;11.05;5.53;;;20.70;99.90;;;-147.18;100.00;67318.16;5086116;28;20381;-81
2022/09/06 04:35:20;;;;;;;10.52;5.03;;;20.70;99.90;;;-147.18;100.00;67318.16;5088355;28;20032;-81
2022/09/06 04:38:46;;;;;;;8.23;4.97;;;20.70;99.90;;;-147.18;100.00;67318.16;5083567;28;20115;-81
2022/09/06 04:42:13;;;;;;;8.25;4.55;;;20.70;99.90;;;-147.18;100.00;67318.16;5083356;28;20405;-82
2022/09/06 04:45:38;;;;;;;8.63;4.72;;;20.70;99.90;;;-147.18;100.00;67318.16;5081410;28;20136;-82
2022/09/06 04:49:04;;;;;;;8.13;4.10;;;20.70;99.90;;;-147.18;100.00;67318.16;5090652;28;20107;-82
2022/09/06 04:52:31;;;;;;;8.13;4.70;;;20.70;99.90;;;-147.18;100.00;67318.16;5094995;28;20127;-82
2022/09/06 04:55:57;;;;;;;10.38;5.32;;;20.60;99.90;;;-147.18;100.00;67318.16;5088986;28;20071;-82
2022/09/06 04:59:23;;;;;;;15.63;5.40;;;20.60;99.90;;;-147.18;100.00;67318.16;5088761;28;20514;-82
2022/09/06 05:02:49;;;;;;;11.85;5.40;;;20.60;99.90;;;-147.18;100.00;67318.16;5083013;28;20556;-78
2022/09/06 05:06:19;;;;;;;10.18;5.03;;;20.60;99.90;;;-147.18;100.00;67318.16;5086226;28;20571;-78
2022/09/06 05:09:47;;;;;;;9.75;5.20;;;20.60;99.90;;;-147.18;100.00;67318.16;5085545;28;20036;-78
2022/09/06 05:13:12;;;;;;;12.35;5.25;;;20.60;99.90;;;-147.18;100.00;67318.16;5084096;28;20043;-82
2022/09/06 05:16:38;;;;;;;13.77;5.65;;;20.60;99.90;;;-147.18;100.00;67318.16;5086529;28;20046;-81
2022/09/06 05:20:04;;;;;;;9.65;5.20;;;20.60;99.90;;;-147.18;100.00;67318.16;5084298;28;20124;-78
2022/09/06 05:23:30;;;;;;;9.35;5.30;;;20.80;99.90;;;-147.18;100.00;67318.16;5087288;28;20055;-78
2022/09/06 05:26:57;;;;;;;12.25;5.95;;;20.60;99.90;;;-147.18;100.00;67318.16;5089010;28;20488;-81
2022/09/06 05:30:23;;;;;;;12.07;6.15;;;20.60;99.90;;;-147.18;100.00;67318.16;5098469;28;20118;-80
2022/09/06 05:33:51;;;;;;;12.60;5.68;;;20.60;99.90;;;-147.18;100.00;67318.16;5099184;28;20159;-82
2022/09/06 05:37:16;;;;;;;8.85;5.50;;;20.50;99.90;;;-147.18;100.00;67318.16;5089216;28;20111;-81
2022/09/06 05:40:42;;;;;;;15.50;6.60;;;20.60;99.90;;;-147.18;100.00;67318.16;5078567;28;20135;-81
2022/09/06 05:44:09;;;;;;;10.90;6.00;;;20.50;99.90;;;-147.18;100.00;67318.16;5084425;28;20109;-82
2022/09/06 05:47:41;;;;;;;9.73;6.00;;;20.60;99.90;;;-147.18;100.00;67318.16;5095063;28;20480;-79
2022/09/06 05:51:08;;;;;;;9.65;5.35;;;20.50;99.90;;;-147.18;100.00;67318.16;5088696;28;20115;-82
2022/09/06 05:54:34;;;;;;;10.00;5.43;;;20.60;99.90;;;-147.18;100.00;67318.16;5089464;28;20052;-82
2022/09/06 05:58:00;;;;;;;10.85;5.43;;;20.60;99.90;;;-147.18;100.00;67318.16;5097634;28;20040;-82
2022/09/06 06:01:28;;;;;;;11.10;6.15;;;20.50;99.90;;;-147.18;100.00;67318.16;5082301;28;20475;-82
2022/09/06 06:04:57;;;;;;;12.23;5.95;;;20.60;99.90;;;-147.18;100.00;67318.16;5091075;28;20072;-80
2022/09/06 06:08:22;;;;;;;12.88;6.07;;;20.60;99.90;;;-147.18;100.00;67318.16;5088700;28;20411;-80
2022/09/06 06:11:48;;;;;;;10.65;5.88;;;20.60;99.90;;;-147.18;100.00;67318.16;5090614;28;20093;-80
2022/09/06 06:15:14;;;;;;;10.98;4.93;;;20.70;99.90;;;-147.18;100.00;67318.16;5087770;28;20055;-80
2022/09/06 06:18:41;;;;;;;8.27;4.53;;;20.70;99.90;;;-147.18;100.00;67318.16;5084492;28;20494;-80
2022/09/06 06:22:08;;;;;;;8.80;4.30;;;20.80;99.90;;;-147.18;100.00;67318.16;5083106;28;20111;-80
2022/09/06 06:25:34;;;;;;;6.53;4.05;;;20.80;99.90;;;-147.18;100.00;67318.16;5080738;28;20123;-80
2022/09/06 06:29:00;;;;;;;8.45;3.92;;;20.80;99.90;;;-147.18;100.00;67318.16;5078986;28;20677;-77
2022/09/06 06:32:26;;;;;;;6.18;3.60;;;20.80;99.90;;;-147.18;100.00;67318.16;5084746;28;20123;-77
2022/09/06 06:36:00;;;;;;;11.93;4.20;;;20.90;99.90;;;-147.18;100.00;67318.16;5081938;28;20136;-77
2022/09/06 06:39:29;;;;;;;7.10;4.18;;;20.90;99.90;;;-147.18;100.00;67318.16;5080306;28;20403;-77
2022/09/06 06:42:55;;;;;;;13.98;4.10;;;21.00;99.90;;;-147.18;100.00;67318.16;5082131;28;20075;-77
2022/09/06 06:46:22;;;;;;;6.78;3.53;;;21.00;99.90;;;-147.18;100.00;67318.16;5088306;28;20040;-77
2022/09/06 06:49:48;;;;;;;7.20;3.50;;;21.10;99.90;;;-147.18;100.00;67318.16;5079483;28;20068;-77
2022/09/06 06:53:15;;;;;;;6.95;3.63;;;21.10;99.90;;;-147.18;100.00;67318.16;5067178;28;20421;-76
2022/09/06 06:56:45;;;;;;;5.85;3.50;;;21.20;99.90;;;-147.18;100.00;67318.16;5083319;28;20147;-76
2022/09/06 07:00:11;;;;;;;6.07;3.30;;;21.20;99.90;;;-147.18;100.00;67318.16;5083590;28;20043;-77
2022/09/06 07:03:36;;;;;;;6.60;3.72;;;21.30;99.90;;;-147.18;100.00;67318.16;5082605;28;20086;-79
2022/09/06 07:07:02;;;;;;;7.13;3.60;;;21.30;99.90;;;-147.18;100.00;67318.16;5084496;28;20060;-79
2022/09/06 07:10:30;;;;;;;14.85;3.70;;;21.40;99.90;;;-147.18;100.00;67318.16;5092928;28;20047;-79
2022/09/06 07:13:56;;;;;;;9.20;3.80;;;21.50;99.90;;;-147.18;100.00;67318.16;5091305;28;20060;-78
2022/09/06 07:17:22;;;;;;;7.13;3.53;;;21.60;99.90;;;-147.18;100.00;67318.16;5091882;28;20102;-79
2022/09/06 07:20:48;;;;;;;10.05;3.13;;;21.70;99.90;;;-147.18;100.00;67318.16;5092448;28;20109;-78
2022/09/06 07:24:14;;;;;;;7.68;3.38;;;21.80;99.90;;;-147.18;100.00;67318.16;5082096;28;20072;-77
2022/09/06 07:27:42;;;;;;;10.43;3.05;;;21.90;99.90;;;-147.18;100.00;67318.16;5080226;28;20147;-77
2022/09/06 07:31:10;;;;;;;5.95;2.72;;;22.00;99.90;;;-147.18;100.00;67318.16;5078575;28;20063;-77
2022/09/06 07:34:38;;;;;;;8.57;2.88;;;22.00;99.20;;;-147.18;100.00;67318.16;5076704;28;20078;-77
2022/09/06 07:38:04;;;;;;;8.65;2.80;;;22.10;99.80;;;-147.18;100.00;67318.16;5078130;28;20057;-77
2022/09/06 07:41:30;;;;;;;7.93;2.75;;;22.20;99.90;;;-147.18;100.00;67318.16;5078962;28;20411;-77
2022/09/06 07:44:57;;;;;;;5.03;2.40;;;22.30;99.40;;;-147.18;100.00;67318.16;5083522;28;20048;-77
2022/09/06 07:48:23;;;;;;;5.15;2.53;;;22.40;99.00;;;-147.18;100.00;67318.16;5086282;28;20077;-77
2022/09/06 07:51:49;;;;;;;4.80;2.35;;;22.60;98.40;;;-147.18;100.00;67318.16;5085193;28;20067;-77
2022/09/06 07:55:15;;;;;;;4.63;2.47;;;22.60;97.80;;;-147.18;100.00;67318.16;5089288;28;20075;-77
2022/09/06 07:58:41;;;;;;;4.75;2.25;;;22.70;99.00;;;-147.18;100.00;67318.16;5083279;28;20448;-77
2022/09/06 08:02:18;;;;;;;4.68;2.30;;;22.80;97.40;;;-147.18;100.00;67318.16;5079888;28;20120;-77
2022/09/06 08:05:44;;;;;;;4.93;1.90;;;22.90;98.80;;;-147.18;100.00;67318.16;5076931;28;20128;-77
2022/09/06 08:09:10;;;;;;;4.07;1.90;;;23.00;97.80;;;-147.18;100.00;67318.16;5080118;28;20127;-77
2022/09/06 08:12:37;;;;;;;3.90;1.83;;;23.00;96.80;;;-147.18;100.00;67318.16;5081150;28;20071;-77
2022/09/06 08:16:04;;;;;;;5.82;1.88;;;23.10;95.70;;;-147.18;100.00;67318.16;5079312;28;20122;-78
2022/09/06 08:19:33;;;;;;;5.22;1.98;;;23.20;93.90;;;-147.18;100.00;67318.16;5082306;28;20051;-77
2022/09/06 08:22:59;;;;;;;7.30;2.20;;;23.30;93.50;;;-147.18;100.00;67318.16;5081267;28;20107;-77
2022/09/06 08:26:25;;;;;;;6.65;2.25;;;23.30;94.50;;;-147.18;100.00;67318.16;5082224;28;20498;-77
2022/09/06 08:29:55;;;;;;;5.70;1.80;;;23.40;93.60;;;-147.18;100.00;67318.16;5081981;28;20066;-77
2022/09/06 08:33:24;;;;;;;4.47;1.75;;;23.60;92.50;;;-147.18;100.00;67318.16;5084057;28;20032;-77
2022/09/06 08:36:58;;;;;;;4.13;1.77;;;23.60;92.10;;;-147.18;100.00;67318.16;5083592;28;20154;-77
2022/09/06 08:40:23;;;;;;;12.82;1.75;;;23.70;90.90;;;-147.18;100.00;67318.16;5075424;28;20420;-77
2022/09/06 08:43:52;;;;;;;5.90;1.92;;;23.80;90.30;;;-147.18;100.00;67318.16;5094345;28;20098;-77
2022/09/06 08:47:20;;;;;;;4.35;1.55;;;23.80;90.70;;;-147.18;100.00;67318.16;5088588;28;20032;-77
2022/09/06 08:50:48;;;;;;;4.97;1.85;;;23.90;90.20;;;-147.18;100.00;67318.16;5088894;28;20071;-77
2022/09/06 08:54:21;;;;;;;3.83;1.40;;;24.00;89.30;;;-147.18;100.00;67318.16;5088775;28;20040;-77
2022/09/06 08:58:12;;;;;;;6.00;1.52;;;24.10;88.40;;;-147.18;100.00;67318.16;5087770;28;20128;-77
2022/09/06 09:01:44;;;;;;;3.35;1.38;;;24.20;88.00;;;-147.18;100.00;67318.16;5084398;28;20047;-77
2022/09/06 09:05:21;;;;;;;5.05;1.63;;;24.20;89.00;;;-147.18;100.00;67318.16;5082126;28;20048;-77
2022/09/06 09:08:58;;;;;;;3.63;1.52;;;24.20;88.10;;;-147.18;100.00;67318.16;5077246;28;20144;-77
2022/09/06 09:12:28;;;;;;;3.47;1.45;;;24.30;86.80;;;-147.18;100.00;67318.16;5081268;28;20059;-77
2022/09/06 09:16:00;;;;;;;3.17;1.50;;;24.30;86.40;;;-147.18;100.00;67318.16;5083170;28;20122;-77
2022/09/06 09:19:32;;;;;;;3.88;1.70;;;24.40;87.20;;;-147.18;100.00;67318.16;5079431;28;20064;-77
2022/09/06 09:22:58;;;;;;;5.55;1.63;;;24.40;87.20;;;-147.18;100.00;67318.16;5075226;28;20102;-77
2022/09/06 09:26:28;;;;;;;4.72;1.95;;;24.50;86.60;;;-147.18;100.00;67318.16;5076871;28;20131;-77
2022/09/06 09:30:06;;;;;;;6.72;1.60;;;24.60;87.20;;;-147.18;100.00;67318.16;5078526;28;20078;-77
2022/09/06 09:33:37;;;;;;;2.83;1.42;;;24.60;86.40;;;-147.18;100.00;67318.16;5083466;22;20433;-87
2022/09/06 09:37:13;;;;;;;4.47;1.63;;;24.60;86.30;;;-147.18;100.00;67318.16;5049712;28;20102;-86
2022/09/06 09:40:42;;;;;;;3.42;1.58;;;24.60;85.60;;;-147.18;100.00;67318.16;5048522;28;20476;-84
2022/09/06 09:44:18;;;;;;;4.97;1.60;;;24.70;85.30;;;-147.18;100.00;67318.16;5061217;28;20036;-84
2022/09/06 09:48:25;;;;;;;5.38;1.65;;;24.80;85.20;;;-147.18;100.00;67318.16;5069049;28;20036;-84
2022/09/06 09:52:06;;;;;;;4.40;1.42;;;24.80;85.70;;;-147.18;100.00;67318.16;5068672;28;20059;-85
2022/09/06 09:55:35;;;;;;;4.00;1.50;;;24.80;83.50;;;-147.18;100.00;67318.16;5061827;28;20407;-85
2022/09/06 09:59:07;;;;;;;3.28;1.35;;;24.90;84.60;;;-147.18;100.00;67318.16;5065355;28;20036;-85
2022/09/06 10:02:34;;;;;;;;;;;24.90;84.50;;;-147.18;100.00;67318.16;5063051;28;20060;-87
2022/09/06 10:06:02;;;;;;;3.80;1.60;;;25.00;84.90;;;-147.18;100.00;67318.16;5042483;28;19971;-87
2022/09/06 10:09:34;;;;;;;2.92;1.20;;;25.10;85.40;;;-147.18;100.00;67318.16;5063171;28;20054;-86
2022/09/06 10:13:12;;;;;;;4.25;1.40;;;24.90;85.00;;;-147.18;100.00;67318.16;5064739;28;20036;-86
2022/09/06 10:16:43;;;;;;;4.07;1.40;;;25.00;84.10;;;-147.18;100.00;67318.16;5059746;28;20059;-87
2022/09/06 10:20:33;;;;;;;2.53;1.30;;;25.00;83.80;;;-147.18;100.00;67318.16;5062542;28;20041;-87
2022/09/06 10:24:06;;;;;;;2.63;1.40;;;25.00;83.30;;;-147.18;100.00;67318.16;5065143;28;20111;-86
2022/09/06 10:27:47;;;;;;;4.63;1.70;;;24.90;84.20;;;-147.18;100.00;67318.16;5064391;28;20106;-87
2022/09/06 10:31:32;;;;;;;6.97;1.40;;;24.90;84.80;;;-147.18;100.00;67318.16;5062909;28;20686;-87
2022/09/06 10:35:16;;;;;;;3.15;1.20;;;24.90;84.30;;;-147.18;100.00;67318.16;5063946;28;20516;-87
2022/09/06 10:38:52;;;;;;;4.10;1.60;;;24.90;84.70;;;-147.18;100.00;67318.16;5066732;28;20064;-87
2022/09/06 10:42:45;;;;;;;5.32;1.48;;;25.00;84.30;;;-147.18;100.00;67318.16;5072215;28;20048;-87
2022/09/06 10:46:25;;;;;;;4.22;1.83;;;24.80;83.30;;;-147.18;100.00;67318.16;5071959;28;20812;-87
2022/09/06 10:49:54;;;;;;;3.67;1.45;;;24.80;83.70;;;-147.18;100.00;67318.16;5072926;28;20047;-87
2022/09/06 10:53:29;;;;;;;4.40;1.65;;;24.80;83.20;;;-147.18;100.00;67318.16;5068482;28;20041;-87
2022/09/06 10:57:07;;;;;;;3.75;1.80;;;24.80;83.60;;;-147.18;100.00;67318.16;5067245;28;20041;-87
2022/09/06 11:00:39;;;;;;;2.90;1.20;;;24.80;83.60;;;-147.18;100.00;67318.16;5052509;28;20052;-87
2022/09/06 11:04:09;;;;;;;;;;;24.90;83.00;;;-147.18;100.00;67318.16;5072446;28;20032;-86
2022/09/06 11:07:42;;;;;;;2.80;1.40;;;25.00;84.00;;;-147.18;100.00;67318.16;5069807;28;20429;-86
2022/09/06 11:11:18;;;;;;;3.55;1.52;;;25.00;83.00;;;-147.18;100.00;67318.16;5066220;28;20047;-87
2022/09/06 11:14:44;;;;;;;3.08;1.25;;;25.10;81.90;;;-147.18;100.00;67318.16;5048709;28;20135;-87
2022/09/06 11:18:20;;;;;;;4.20;1.55;;;25.10;81.00;;;-147.18;100.00;67318.16;5064304;28;20047;-87
2022/09/06 11:22:25;;;;;;;4.03;1.42;;;25.10;81.80;;;-147.18;100.00;67318.16;5062828;28;20033;-87
2022/09/06 11:26:38;;;;;;;4.43;1.35;;;25.10;80.10;;;-147.18;100.00;67318.16;5062236;28;20032;-86
2022/09/06 11:30:13;;;;;;;4.63;1.60;;;25.10;82.50;;;-147.18;100.00;67318.16;5060097;28;20492;-82
2022/09/06 11:33:43;;;;;;;3.80;1.60;;;25.10;81.10;;;-147.18;100.00;67318.16;5062816;28;20120;-83
2022/09/06 11:37:24;;;;;;;2.60;1.23;;;25.20;81.20;;;-147.18;100.00;67318.16;5062581;28;20122;-84
2022/09/06 11:41:04;;;;;;;5.65;1.75;;;25.10;81.60;;;-147.18;100.00;67318.16;5064511;28;20059;-80
2022/09/06 11:45:12;;;;;;;3.28;1.60;;;25.10;81.70;;;-147.18;100.00;67318.16;5066252;28;20062;-83
2022/09/06 11:49:01;;;;;;;5.50;1.50;;;25.10;81.60;;;-147.18;100.00;67318.16;5068001;28;20067;-82
2022/09/06 11:52:53;;;;;;;4.95;1.50;;;25.20;82.10;;;-147.18;100.00;67318.16;5063961;28;20040;-82
2022/09/06 11:56:28;;;;;;;2.83;1.20;;;25.20;80.10;;;-147.18;100.00;67318.16;5034798;28;20159;-82
2022/09/06 12:00:00;;;;;;;4.45;1.45;;;25.10;79.60;;;-147.18;100.00;67318.16;5061028;28;20033;-83
2022/09/06 12:03:54;;;;;;;5.32;1.65;;;25.20;81.20;;;-147.18;100.00;67318.16;5064818;28;20396;-82
2022/09/06 12:07:22;;;;;;;4.93;1.75;;;25.20;81.10;;;-147.18;100.00;67318.16;5044418;28;20044;-82
2022/09/06 12:10:56;;;;;;;4.72;1.67;;;25.30;80.80;;;-147.18;100.00;67318.16;5061989;28;20050;-82
2022/09/06 12:14:35;;;;;;;7.28;1.90;;;25.30;80.90;;;-147.18;100.00;67318.16;5063020;28;20051;-85
2022/09/06 12:18:39;;;;;;;4.97;1.73;;;25.30;80.60;;;-147.18;100.00;67318.16;5063746;28;20055;-82
2022/09/06 12:22:32;;;;;;;4.55;1.60;;;25.30;79.30;;;-147.18;100.00;67318.16;5057053;28;20068;-83
2022/09/06 12:25:58;;;;;;;10.27;1.80;;;25.30;79.50;;;-147.18;100.00;67318.16;5062375;28;20040;-82
2022/09/06 12:29:48;;;;;;;4.05;1.67;;;25.30;80.30;;;-147.18;100.00;67318.16;5066573;28;20413;-82
2022/09/06 12:33:23;;;;;;;4.18;1.70;;;25.30;80.50;;;-147.18;100.00;67318.16;5062107;28;20045;-83
2022/09/06 12:36:51;;;;;;;6.93;2.03;;;25.20;79.30;;;-147.18;100.00;67318.16;5059656;28;20047;-83
2022/09/06 12:40:19;;;;;;;7.13;1.67;;;25.20;80.60;;;-147.18;100.00;67318.16;5065543;28;20127;-83
2022/09/06 12:43:47;;;;;;;6.80;2.15;;;25.30;79.90;;;-147.18;100.00;67318.16;5063415;28;20037;-82
2022/09/06 12:47:14;;;;;;;4.28;1.60;;;25.30;80.00;;;-147.18;100.00;67318.16;5065891;28;20523;-83
2022/09/06 12:50:40;;;;;;;5.35;2.00;;;25.30;79.90;;;-147.18;100.00;67318.16;5054681;28;20098;-83
2022/09/06 12:54:20;;;;;;;5.88;2.05;;;25.40;80.00;;;-147.18;100.00;67318.16;5068881;28;20033;-83
2022/09/06 12:57:47;;;;;;;8.40;2.50;;;25.50;79.10;;;-147.18;100.00;67318.16;5070510;28;20098;-83
2022/09/06 13:01:16;;;;;;;4.70;2.10;;;25.60;79.50;;;-147.18;100.00;67318.16;5063265;28;20032;-83
2022/09/06 13:04:56;;;;;;;7.63;2.13;;;25.60;80.20;;;-147.18;100.00;67318.16;5062242;28;20036;-83
2022/09/06 13:08:24;;;;;;;8.32;1.90;;;25.60;78.20;;;-147.18;100.00;67318.16;5062435;28;20067;-83
2022/09/06 13:11:52;;;;;;;5.60;1.70;;;25.60;80.60;;;-147.18;100.00;67318.16;5043273;28;20420;-82
2022/09/06 13:15:23;;;;;;;7.75;2.00;;;25.60;80.50;;;-147.18;100.00;67318.16;5062007;28;20037;-87
2022/09/06 13:18:49;;;;;;;;;;;25.60;80.00;;;-147.18;100.00;67318.16;5061807;28;20051;-87
2022/09/06 13:22:37;;;;;;;4.63;2.40;;;25.60;80.10;;;-147.18;100.00;67318.16;5059945;28;19925;-86
2022/09/06 13:26:05;;;;;;;10.48;2.50;;;25.50;80.00;;;-147.18;100.00;67318.16;5064299;28;20132;-84
2022/09/06 13:29:32;;;;;;;6.28;2.47;;;25.60;81.10;;;-147.18;100.00;67318.16;5047131;28;20082;-84
2022/09/06 13:33:00;;;;;;;7.00;2.47;;;25.60;82.40;;;-147.18;100.00;67318.16;5063244;28;20052;-84
2022/09/06 13:36:29;;;;;;;7.45;2.30;;;25.50;80.90;;;-147.18;100.00;67318.16;5061731;28;20123;-84
2022/09/06 13:39:57;;;;;;;6.05;2.20;;;25.50;81.80;;;-147.18;100.00;67318.16;5056799;28;20436;-84
2022/09/06 13:43:27;;;;;;;7.95;2.25;;;25.50;81.10;;;-147.18;100.00;67318.16;5046875;28;20048;-84
2022/09/06 13:47:04;;;;;;;6.55;2.75;;;25.50;81.60;;;-147.18;100.00;67318.16;5063230;28;20052;-83
2022/09/06 13:50:30;;;;;;;9.63;2.28;;;25.50;81.90;;;-147.18;100.00;67318.16;5064077;28;20063;-82
2022/09/06 13:54:04;;;;;;;9.35;2.70;;;25.50;81.70;;;-147.18;100.00;67318.16;5064745;28;20511;-82
2022/09/06 13:57:30;;;;;;;5.25;2.22;;;25.60;79.30;;;-147.18;100.00;67318.16;5065893;28;20041;-83
2022/09/06 14:00:56;;;;;;;5.93;1.85;;;25.60;80.00;;;-147.18;100.00;67318.16;5068341;28;20037;-82
2022/09/06 14:04:25;;;;;;;6.22;2.60;;;25.60;80.40;;;-147.18;100.00;67318.16;5063437;28;20493;-82
2022/09/06 14:07:51;;;;;;;5.85;2.05;;;25.60;79.70;;;-147.18;100.00;67318.16;5066957;28;20049;-83
2022/09/06 14:11:17;;;;;;;7.80;2.55;;;25.60;79.20;;;-147.18;100.00;67318.16;5065684;28;20143;-82
2022/09/06 14:14:44;;;;;;;5.43;2.13;;;25.60;78.70;;;-147.18;100.00;67318.16;5068463;28;20044;-83
2022/09/06 14:18:10;;;;;;;7.07;1.88;;;25.60;77.70;;;-147.18;100.00;67318.16;5070679;28;20144;-83
2022/09/06 14:21:36;;;;;;;4.82;1.90;;;25.60;76.20;;;-147.18;100.00;67318.16;5071103;28;20558;-83